sensor_id;sensor_type;location;lat;lon;timestamp;temperature;humidity
7784;DHT22;19359;51.402;6.778;2023-04-01T00:01:23;9.90;99.90
7784;DHT22;19359;51.402;6.778;2023-04-01T00:03:50;9.80;99.90
7784;DHT22;19359;51.402;6.778;2023-04-01T00:06:18;9.90;99.90
7784;DHT22;19359;51.402;6.778;2023-04-01T00:08:46;9.90;99.90
7784;DHT22;19359;51.402;6.778;2023-04-01T00:11:14;9.90;99.90
7784;DHT22;19359;51.402;6.778;2023-04-01T00:13:41;10.00;99.90
7784;DHT22;19359;51.402;6.778;2023-04-01T00:16:09;10.00;99.90
7784;DHT22;19359;51.402;6.778;2023-04-01T00:18:36;10.00;99.90
7784;DHT22;19359;51.402;6.778;2023-04-01T00:21:03;10.00;99.90
7784;DHT22;19359;51.402;6.778;2023-04-01T00:23:30;9.60;99.90
7784;DHT22;19359;51.402;6.778;2023-04-01T00:26:00;10.00;99.90
7784;DHT22;19359;51.402;6.778;2023-04-01T00:28:28;10.30;99.90
7784;DHT22;19359;51.402;6.778;2023-04-01T00:30:55;9.90;99.90
7784;DHT22;19359;51.402;6.778;2023-04-01T00:33:22;9.90;99.90
7784;DHT22;19359;51.402;6.778;2023-04-01T00:35:48;9.80;99.90
7784;DHT22;19359;51.402;6.778;2023-04-01T00:38:15;10.10;99.90
7784;DHT22;19359;51.402;6.778;2023-04-01T00:40:45;9.90;99.90
7784;DHT22;19359;51.402;6.778;2023-04-01T00:43:15;9.80;99.90
7784;DHT22;19359;51.402;6.778;2023-04-01T00:45:44;9.80;99.90
7784;DHT22;19359;51.402;6.778;2023-04-01T00:48:16;9.80;99.90
7784;DHT22;19359;51.402;6.778;2023-04-01T00:50:47;9.80;99.90
7784;DHT22;19359;51.402;6.778;2023-04-01T00:53:16;10.40;99.90
7784;DHT22;19359;51.402;6.778;2023-04-01T00:55:49;9.70;99.90
7784;DHT22;19359;51.402;6.778;2023-04-01T00:58:21;9.80;99.90
7784;DHT22;19359;51.402;6.778;2023-04-01T01:00:50;9.80;99.90
7784;DHT22;19359;51.402;6.778;2023-04-01T01:03:18;10.20;99.90
7784;DHT22;19359;51.402;6.778;2023-04-01T01:06:10;9.80;99.90
7784;DHT22;19359;51.402;6.778;2023-04-01T01:08:56;9.80;99.90
7784;DHT22;19359;51.402;6.778;2023-04-01T01:11:33;9.80;99.90
7784;DHT22;19359;51.402;6.778;2023-04-01T01:14:09;9.80;99.90
7784;DHT22;19359;51.402;6.778;2023-04-01T01:16:43;9.80;99.90
7784;DHT22;19359;51.402;6.778;2023-04-01T01:19:24;9.80;99.90
7784;DHT22;19359;51.402;6.778;2023-04-01T01:22:11;9.80;99.90
7784;DHT22;19359;51.402;6.778;2023-04-01T01:24:53;9.80;99.90
7784;DHT22;19359;51.402;6.778;2023-04-01T01:27:22;9.80;99.90
7784;DHT22;19359;51.402;6.778;2023-04-01T01:30:17;9.80;99.90
7784;DHT22;19359;51.402;6.778;2023-04-01T01:33:12;9.80;99.90
7784;DHT22;19359;51.402;6.778;2023-04-01T01:35:44;9.80;99.90
7784;DHT22;19359;51.402;6.778;2023-04-01T01:38:15;9.80;99.90
7784;DHT22;19359;51.402;6.778;2023-04-01T01:40:44;9.80;99.90
7784;DHT22;19359;51.402;6.778;2023-04-01T01:43:16;9.80;99.90
7784;DHT22;19359;51.402;6.778;2023-04-01T01:45:48;9.80;99.90
7784;DHT22;19359;51.402;6.778;2023-04-01T01:48:16;9.90;99.90
7784;DHT22;19359;51.402;6.778;2023-04-01T01:50:45;9.80;99.90
7784;DHT22;19359;51.402;6.778;2023-04-01T01:53:13;9.80;99.90
7784;DHT22;19359;51.402;6.778;2023-04-01T01:55:42;10.00;99.90
7784;DHT22;19359;51.402;6.778;2023-04-01T01:58:12;9.90;99.90
7784;DHT22;19359;51.402;6.778;2023-04-01T02:00:42;9.90;99.90
7784;DHT22;19359;51.402;6.778;2023-04-01T02:03:11;9.90;99.90
7784;DHT22;19359;51.402;6.778;2023-04-01T02:05:39;9.90;99.90
7784;DHT22;19359;51.402;6.778;2023-04-01T02:08:09;9.90;99.90
7784;DHT22;19359;51.402;6.778;2023-04-01T02:10:41;9.80;99.90
7784;DHT22;19359;51.402;6.778;2023-04-01T02:13:14;9.80;99.90
7784;DHT22;19359;51.402;6.778;2023-04-01T02:15:47;9.80;99.90
7784;DHT22;19359;51.402;6.778;2023-04-01T02:18:15;9.70;99.90
7784;DHT22;19359;51.402;6.778;2023-04-01T02:20:44;9.80;99.90
7784;DHT22;19359;51.402;6.778;2023-04-01T02:23:13;9.80;99.90
7784;DHT22;19359;51.402;6.778;2023-04-01T02:25:41;11.40;99.90
7784;DHT22;19359;51.402;6.778;2023-04-01T02:28:10;9.70;99.90
7784;DHT22;19359;51.402;6.778;2023-04-01T02:30:38;9.80;99.90
7784;DHT22;19359;51.402;6.778;2023-04-01T02:33:07;9.80;99.90
7784;DHT22;19359;51.402;6.778;2023-04-01T02:35:35;10.00;99.90
7784;DHT22;19359;51.402;6.778;2023-04-01T02:38:03;9.80;99.90
7784;DHT22;19359;51.402;6.778;2023-04-01T02:40:41;9.70;99.90
7784;DHT22;19359;51.402;6.778;2023-04-01T02:43:08;9.70;99.90
7784;DHT22;19359;51.402;6.778;2023-04-01T02:45:34;9.60;99.90
7784;DHT22;19359;51.402;6.778;2023-04-01T02:50:28;9.60;99.90
7784;DHT22;19359;51.402;6.778;2023-04-01T02:52:55;9.60;99.90
7784;DHT22;19359;51.402;6.778;2023-04-01T02:55:22;9.60;99.90
7784;DHT22;19359;51.402;6.778;2023-04-01T02:57:50;9.60;99.90
7784;DHT22;19359;51.402;6.778;2023-04-01T03:02:44;9.60;99.90
7784;DHT22;19359;51.402;6.778;2023-04-01T03:05:11;9.60;99.90
7784;DHT22;19359;51.402;6.778;2023-04-01T03:07:38;9.60;99.90
7784;DHT22;19359;51.402;6.778;2023-04-01T03:10:06;9.60;99.90
7784;DHT22;19359;51.402;6.778;2023-04-01T03:12:33;9.60;99.90
7784;DHT22;19359;51.402;6.778;2023-04-01T03:15:02;9.60;99.90
7784;DHT22;19359;51.402;6.778;2023-04-01T03:17:29;9.60;99.90
7784;DHT22;19359;51.402;6.778;2023-04-01T03:19:56;9.60;99.90
7784;DHT22;19359;51.402;6.778;2023-04-01T03:22:22;9.60;99.90
7784;DHT22;19359;51.402;6.778;2023-04-01T03:24:49;9.90;99.90
7784;DHT22;19359;51.402;6.778;2023-04-01T03:27:16;9.60;99.90
7784;DHT22;19359;51.402;6.778;2023-04-01T03:42:01;9.60;99.90
7784;DHT22;19359;51.402;6.778;2023-04-01T03:44:30;9.50;99.90
7784;DHT22;19359;51.402;6.778;2023-04-01T03:46:58;9.60;99.90
7784;DHT22;19359;51.402;6.778;2023-04-01T03:49:26;9.60;99.90
7784;DHT22;19359;51.402;6.778;2023-04-01T03:51:53;9.70;99.90
7784;DHT22;19359;51.402;6.778;2023-04-01T03:54:20;9.70;99.90
7784;DHT22;19359;51.402;6.778;2023-04-01T03:56:47;9.60;99.90
7784;DHT22;19359;51.402;6.778;2023-04-01T03:59:14;9.50;99.90
7784;DHT22;19359;51.402;6.778;2023-04-01T04:04:10;9.60;99.90
7784;DHT22;19359;51.402;6.778;2023-04-01T04:11:33;9.60;99.90
7784;DHT22;19359;51.402;6.778;2023-04-01T04:16:28;9.60;99.90
7784;DHT22;19359;51.402;6.778;2023-04-01T04:18:55;9.60;99.90
7784;DHT22;19359;51.402;6.778;2023-04-01T04:21:21;9.60;99.90
7784;DHT22;19359;51.402;6.778;2023-04-01T04:23:50;9.60;99.90
7784;DHT22;19359;51.402;6.778;2023-04-01T04:26:17;9.60;99.90
7784;DHT22;19359;51.402;6.778;2023-04-01T04:28:44;9.50;99.90
7784;DHT22;19359;51.402;6.778;2023-04-01T04:31:11;9.60;99.90
7784;DHT22;19359;51.402;6.778;2023-04-01T04:33:38;9.70;99.90
7784;DHT22;19359;51.402;6.778;2023-04-01T04:36:05;9.60;99.90
7784;DHT22;19359;51.402;6.778;2023-04-01T04:38:32;9.60;99.90
7784;DHT22;19359;51.402;6.778;2023-04-01T04:41:00;9.60;99.90
7784;DHT22;19359;51.402;6.778;2023-04-01T04:45:54;9.70;99.90
7784;DHT22;19359;51.402;6.778;2023-04-01T04:48:21;9.70;99.90
7784;DHT22;19359;51.402;6.778;2023-04-01T04:50:49;9.60;99.90
7784;DHT22;19359;51.402;6.778;2023-04-01T04:53:17;9.60;99.90
7784;DHT22;19359;51.402;6.778;2023-04-01T04:58:13;9.60;99.90
7784;DHT22;19359;51.402;6.778;2023-04-01T05:05:34;9.70;99.90
7784;DHT22;19359;51.402;6.778;2023-04-01T05:08:01;9.60;99.90
7784;DHT22;19359;51.402;6.778;2023-04-01T05:10:28;9.60;99.90
7784;DHT22;19359;51.402;6.778;2023-04-01T05:12:56;9.60;99.90
7784;DHT22;19359;51.402;6.778;2023-04-01T05:15:24;9.50;99.90
7784;DHT22;19359;51.402;6.778;2023-04-01T05:17:51;9.60;99.90
7784;DHT22;19359;51.402;6.778;2023-04-01T05:22:44;9.60;99.90
7784;DHT22;19359;51.402;6.778;2023-04-01T05:25:11;9.60;99.90
7784;DHT22;19359;51.402;6.778;2023-04-01T05:27:38;9.60;99.90
7784;DHT22;19359;51.402;6.778;2023-04-01T05:30:06;9.70;99.90
7784;DHT22;19359;51.402;6.778;2023-04-01T05:32:34;9.60;99.90
7784;DHT22;19359;51.402;6.778;2023-04-01T05:35:01;9.40;99.90
7784;DHT22;19359;51.402;6.778;2023-04-01T05:37:28;9.60;99.90
7784;DHT22;19359;51.402;6.778;2023-04-01T05:39:55;9.60;99.90
7784;DHT22;19359;51.402;6.778;2023-04-01T05:47:16;9.70;99.90
7784;DHT22;19359;51.402;6.778;2023-04-01T05:49:44;9.60;99.90
7784;DHT22;19359;51.402;6.778;2023-04-01T05:52:10;9.60;99.90
7784;DHT22;19359;51.402;6.778;2023-04-01T05:54:37;9.60;99.90
7784;DHT22;19359;51.402;6.778;2023-04-01T05:57:04;9.80;99.90
7784;DHT22;19359;51.402;6.778;2023-04-01T05:59:31;9.70;99.90
7784;DHT22;19359;51.402;6.778;2023-04-01T06:01:58;9.50;99.90
7784;DHT22;19359;51.402;6.778;2023-04-01T06:06:53;9.70;99.90
7784;DHT22;19359;51.402;6.778;2023-04-01T06:09:26;9.60;99.90
7784;DHT22;19359;51.402;6.778;2023-04-01T06:12:09;9.60;99.90
7784;DHT22;19359;51.402;6.778;2023-04-01T06:14:46;9.60;99.90
7784;DHT22;19359;51.402;6.778;2023-04-01T06:17:25;9.50;99.90
7784;DHT22;19359;51.402;6.778;2023-04-01T06:19:58;9.70;99.90
7784;DHT22;19359;51.402;6.778;2023-04-01T06:22:43;9.70;99.90
7784;DHT22;19359;51.402;6.778;2023-04-01T06:25:29;9.50;99.90
7784;DHT22;19359;51.402;6.778;2023-04-01T06:28:13;9.70;99.90
7784;DHT22;19359;51.402;6.778;2023-04-01T06:30:49;9.70;99.90
7784;DHT22;19359;51.402;6.778;2023-04-01T06:33:27;9.70;99.90
7784;DHT22;19359;51.402;6.778;2023-04-01T06:36:10;9.90;99.90
7784;DHT22;19359;51.402;6.778;2023-04-01T06:38:49;9.70;99.90
7784;DHT22;19359;51.402;6.778;2023-04-01T06:41:42;9.70;99.90
7784;DHT22;19359;51.402;6.778;2023-04-01T06:44:16;9.70;99.90
7784;DHT22;19359;51.402;6.778;2023-04-01T06:46:53;9.60;99.90
7784;DHT22;19359;51.402;6.778;2023-04-01T06:49:44;9.80;99.90
7784;DHT22;19359;51.402;6.778;2023-04-01T06:52:21;9.80;99.90
7784;DHT22;19359;51.402;6.778;2023-04-01T06:54:55;9.80;99.90
7784;DHT22;19359;51.402;6.778;2023-04-01T06:57:31;9.80;99.90
7784;DHT22;19359;51.402;6.778;2023-04-01T07:00:00;9.80;99.90
7784;DHT22;19359;51.402;6.778;2023-04-01T07:02:34;9.70;99.90
7784;DHT22;19359;51.402;6.778;2023-04-01T07:05:04;9.70;99.90
7784;DHT22;19359;51.402;6.778;2023-04-01T07:07:35;9.70;99.90
7784;DHT22;19359;51.402;6.778;2023-04-01T07:10:09;9.70;99.90
7784;DHT22;19359;51.402;6.778;2023-04-01T07:12:42;9.70;99.90
7784;DHT22;19359;51.402;6.778;2023-04-01T07:15:16;9.70;99.90
7784;DHT22;19359;51.402;6.778;2023-04-01T07:17:46;9.50;99.90
7784;DHT22;19359;51.402;6.778;2023-04-01T07:20:17;9.90;99.90
7784;DHT22;19359;51.402;6.778;2023-04-01T07:22:48;9.70;99.90
7784;DHT22;19359;51.402;6.778;2023-04-01T07:25:20;9.70;99.90
7784;DHT22;19359;51.402;6.778;2023-04-01T07:27:47;9.50;99.90
7784;DHT22;19359;51.402;6.778;2023-04-01T07:30:15;9.70;99.90
7784;DHT22;19359;51.402;6.778;2023-04-01T07:32:48;9.70;99.90
7784;DHT22;19359;51.402;6.778;2023-04-01T07:35:24;9.70;99.90
7784;DHT22;19359;51.402;6.778;2023-04-01T07:38:16;9.70;99.90
7784;DHT22;19359;51.402;6.778;2023-04-01T07:40:51;9.80;99.90
7784;DHT22;19359;51.402;6.778;2023-04-01T07:43:44;9.70;99.90
7784;DHT22;19359;51.402;6.778;2023-04-01T07:46:22;9.60;99.90
7784;DHT22;19359;51.402;6.778;2023-04-01T07:49:00;9.90;99.90
7784;DHT22;19359;51.402;6.778;2023-04-01T07:51:38;9.70;99.90
7784;DHT22;19359;51.402;6.778;2023-04-01T07:54:10;9.80;99.90
7784;DHT22;19359;51.402;6.778;2023-04-01T07:56:44;9.70;99.90
7784;DHT22;19359;51.402;6.778;2023-04-01T07:59:15;9.80;99.90
7784;DHT22;19359;51.402;6.778;2023-04-01T08:01:50;9.80;99.90
7784;DHT22;19359;51.402;6.778;2023-04-01T08:04:27;9.90;99.90
7784;DHT22;19359;51.402;6.778;2023-04-01T08:07:00;9.90;99.90
7784;DHT22;19359;51.402;6.778;2023-04-01T08:09:35;9.80;99.90
7784;DHT22;19359;51.402;6.778;2023-04-01T08:12:13;9.80;99.90
7784;DHT22;19359;51.402;6.778;2023-04-01T08:14:52;9.90;99.90
7784;DHT22;19359;51.402;6.778;2023-04-01T08:17:30;9.90;99.90
7784;DHT22;19359;51.402;6.778;2023-04-01T08:22:51;10.00;99.90
7784;DHT22;19359;51.402;6.778;2023-04-01T08:25:24;10.00;99.90
7784;DHT22;19359;51.402;6.778;2023-04-01T08:27:56;9.80;99.90
7784;DHT22;19359;51.402;6.778;2023-04-01T08:30:30;10.00;99.90
7784;DHT22;19359;51.402;6.778;2023-04-01T08:33:05;10.00;99.90
7784;DHT22;19359;51.402;6.778;2023-04-01T08:35:39;9.90;99.90
7784;DHT22;19359;51.402;6.778;2023-04-01T08:38:12;9.90;99.90
7784;DHT22;19359;51.402;6.778;2023-04-01T08:40:58;10.10;99.90
7784;DHT22;19359;51.402;6.778;2023-04-01T08:43:59;9.90;99.90
7784;DHT22;19359;51.402;6.778;2023-04-01T08:47:03;9.90;99.90
7784;DHT22;19359;51.402;6.778;2023-04-01T08:49:53;10.00;99.90
7784;DHT22;19359;51.402;6.778;2023-04-01T08:52:32;10.00;99.90
7784;DHT22;19359;51.402;6.778;2023-04-01T08:57:53;10.10;99.90
7784;DHT22;19359;51.402;6.778;2023-04-01T09:00:30;10.00;99.90
7784;DHT22;19359;51.402;6.778;2023-04-01T09:06:12;10.10;99.90
7784;DHT22;19359;51.402;6.778;2023-04-01T09:08:59;10.10;99.90
7784;DHT22;19359;51.402;6.778;2023-04-01T09:11:35;10.10;99.90
7784;DHT22;19359;51.402;6.778;2023-04-01T09:20:16;10.20;99.90
7784;DHT22;19359;51.402;6.778;2023-04-01T09:22:53;10.20;99.90
7784;DHT22;19359;51.402;6.778;2023-04-01T09:25:35;10.20;99.90
7784;DHT22;19359;51.402;6.778;2023-04-01T09:28:10;10.40;99.90
7784;DHT22;19359;51.402;6.778;2023-04-01T09:34:04;10.20;99.90
7784;DHT22;19359;51.402;6.778;2023-04-01T09:36:43;10.40;99.90
7784;DHT22;19359;51.402;6.778;2023-04-01T09:39:34;10.50;99.90
7784;DHT22;19359;51.402;6.778;2023-04-01T09:42:14;10.50;99.90
7784;DHT22;19359;51.402;6.778;2023-04-01T09:44:46;10.50;99.90
7784;DHT22;19359;51.402;6.778;2023-04-01T09:47:24;10.50;99.90
7784;DHT22;19359;51.402;6.778;2023-04-01T09:50:16;10.50;99.90
7784;DHT22;19359;51.402;6.778;2023-04-01T09:52:52;10.50;99.90
7784;DHT22;19359;51.402;6.778;2023-04-01T10:02:09;10.50;99.90
7784;DHT22;19359;51.402;6.778;2023-04-01T10:14:01;10.50;99.90
7784;DHT22;19359;51.402;6.778;2023-04-01T10:26:06;10.50;99.90
7784;DHT22;19359;51.402;6.778;2023-04-01T10:29:18;10.40;99.90
7784;DHT22;19359;51.402;6.778;2023-04-01T10:32:10;10.50;99.90
7784;DHT22;19359;51.402;6.778;2023-04-01T10:40:57;10.60;99.90
7784;DHT22;19359;51.402;6.778;2023-04-01T10:44:20;10.60;99.90
7784;DHT22;19359;51.402;6.778;2023-04-01T10:47:19;10.60;99.90
7784;DHT22;19359;51.402;6.778;2023-04-01T10:50:24;10.50;99.90
7784;DHT22;19359;51.402;6.778;2023-04-01T10:53:27;10.50;99.90
7784;DHT22;19359;51.402;6.778;2023-04-01T10:56:36;10.60;99.90
7784;DHT22;19359;51.402;6.778;2023-04-01T10:59:42;10.50;99.90
7784;DHT22;19359;51.402;6.778;2023-04-01T11:08:48;10.50;99.90
7784;DHT22;19359;51.402;6.778;2023-04-01T11:12:00;10.50;99.90
7784;DHT22;19359;51.402;6.778;2023-04-01T11:14:52;10.60;99.90
7784;DHT22;19359;51.402;6.778;2023-04-01T11:18:07;10.60;99.90
7784;DHT22;19359;51.402;6.778;2023-04-01T11:20:57;10.60;99.90
7784;DHT22;19359;51.402;6.778;2023-04-01T11:23:46;10.60;99.90
7784;DHT22;19359;51.402;6.778;2023-04-01T11:26:27;10.60;99.90
7784;DHT22;19359;51.402;6.778;2023-04-01T11:29:40;10.50;99.90
7784;DHT22;19359;51.402;6.778;2023-04-01T11:32:24;10.60;99.90
7784;DHT22;19359;51.402;6.778;2023-04-01T11:35:15;10.60;99.90
7784;DHT22;19359;51.402;6.778;2023-04-01T11:37:54;10.60;99.90
7784;DHT22;19359;51.402;6.778;2023-04-01T11:40:31;10.70;99.90
7784;DHT22;19359;51.402;6.778;2023-04-01T11:43:06;10.60;99.90
7784;DHT22;19359;51.402;6.778;2023-04-01T11:45:38;10.60;99.90
7784;DHT22;19359;51.402;6.778;2023-04-01T11:48:30;10.60;99.90
7784;DHT22;19359;51.402;6.778;2023-04-01T11:53:42;10.50;99.90
7784;DHT22;19359;51.402;6.778;2023-04-01T11:56:23;10.70;99.90
7784;DHT22;19359;51.402;6.778;2023-04-01T11:59:12;10.60;99.90
7784;DHT22;19359;51.402;6.778;2023-04-01T12:01:50;11.10;99.90
7784;DHT22;19359;51.402;6.778;2023-04-01T12:04:36;10.60;99.90
7784;DHT22;19359;51.402;6.778;2023-04-01T12:07:15;10.80;99.90
7784;DHT22;19359;51.402;6.778;2023-04-01T12:09:52;10.60;99.90
7784;DHT22;19359;51.402;6.778;2023-04-01T12:12:32;10.70;99.90
7784;DHT22;19359;51.402;6.778;2023-04-01T12:15:20;10.70;99.90
7784;DHT22;19359;51.402;6.778;2023-04-01T12:17:56;10.50;99.90
7784;DHT22;19359;51.402;6.778;2023-04-01T12:20:36;10.70;99.90
7784;DHT22;19359;51.402;6.778;2023-04-01T12:23:15;10.70;99.90
7784;DHT22;19359;51.402;6.778;2023-04-01T12:26:15;10.70;99.90
7784;DHT22;19359;51.402;6.778;2023-04-01T12:28:54;10.80;99.90
7784;DHT22;19359;51.402;6.778;2023-04-01T12:31:30;10.90;99.90
7784;DHT22;19359;51.402;6.778;2023-04-01T12:37:20;11.00;99.90
7784;DHT22;19359;51.402;6.778;2023-04-01T12:40:06;11.10;99.90
7784;DHT22;19359;51.402;6.778;2023-04-01T12:42:59;11.00;99.90
7784;DHT22;19359;51.402;6.778;2023-04-01T12:45:32;11.00;99.90
7784;DHT22;19359;51.402;6.778;2023-04-01T12:51:23;10.90;99.90
7784;DHT22;19359;51.402;6.778;2023-04-01T12:54:26;10.90;99.90
7784;DHT22;19359;51.402;6.778;2023-04-01T12:57:14;10.70;99.90
7784;DHT22;19359;51.402;6.778;2023-04-01T12:59:59;10.60;99.90
7784;DHT22;19359;51.402;6.778;2023-04-01T13:02:42;11.00;99.90
7784;DHT22;19359;51.402;6.778;2023-04-01T13:05:20;11.00;99.90
7784;DHT22;19359;51.402;6.778;2023-04-01T13:08:11;10.70;99.90
7784;DHT22;19359;51.402;6.778;2023-04-01T13:11:02;11.00;99.90
7784;DHT22;19359;51.402;6.778;2023-04-01T13:14:13;11.00;99.90
7784;DHT22;19359;51.402;6.778;2023-04-01T13:16:46;10.80;99.90
7784;DHT22;19359;51.402;6.778;2023-04-01T13:19:19;10.70;99.90
7784;DHT22;19359;51.402;6.778;2023-04-01T13:21:54;10.70;99.90
7784;DHT22;19359;51.402;6.778;2023-04-01T13:24:37;11.50;99.90
7784;DHT22;19359;51.402;6.778;2023-04-01T13:27:11;10.70;99.90
7784;DHT22;19359;51.402;6.778;2023-04-01T13:29:45;10.70;99.90
7784;DHT22;19359;51.402;6.778;2023-04-01T13:32:29;10.70;99.90
7784;DHT22;19359;51.402;6.778;2023-04-01T13:35:08;10.30;99.90
7784;DHT22;19359;51.402;6.778;2023-04-01T13:37:54;10.60;99.90
7784;DHT22;19359;51.402;6.778;2023-04-01T13:40:33;11.30;99.90
7784;DHT22;19359;51.402;6.778;2023-04-01T13:43:11;10.60;99.90
7784;DHT22;19359;51.402;6.778;2023-04-01T13:45:54;10.40;99.90
7784;DHT22;19359;51.402;6.778;2023-04-01T13:48:33;10.60;99.90
7784;DHT22;19359;51.402;6.778;2023-04-01T13:51:21;10.60;99.90
7784;DHT22;19359;51.402;6.778;2023-04-01T13:54:18;10.50;99.90
7784;DHT22;19359;51.402;6.778;2023-04-01T13:56:50;10.50;99.90
7784;DHT22;19359;51.402;6.778;2023-04-01T13:59:40;10.50;99.90
7784;DHT22;19359;51.402;6.778;2023-04-01T14:02:31;10.50;99.90
7784;DHT22;19359;51.402;6.778;2023-04-01T14:05:24;10.50;99.90
7784;DHT22;19359;51.402;6.778;2023-04-01T14:08:04;10.40;99.90
7784;DHT22;19359;51.402;6.778;2023-04-01T14:10:42;10.60;99.90
7784;DHT22;19359;51.402;6.778;2023-04-01T14:13:14;10.40;99.90
7784;DHT22;19359;51.402;6.778;2023-04-01T14:15:58;10.60;99.90
7784;DHT22;19359;51.402;6.778;2023-04-01T14:18:53;10.70;99.90
7784;DHT22;19359;51.402;6.778;2023-04-01T14:21:33;10.70;99.90
7784;DHT22;19359;51.402;6.778;2023-04-01T14:24:18;10.70;99.90
7784;DHT22;19359;51.402;6.778;2023-04-01T14:29:56;10.70;99.90
7784;DHT22;19359;51.402;6.778;2023-04-01T14:32:33;10.60;99.90
7784;DHT22;19359;51.402;6.778;2023-04-01T14:35:25;10.60;99.90
7784;DHT22;19359;51.402;6.778;2023-04-01T14:38:10;10.60;99.90
7784;DHT22;19359;51.402;6.778;2023-04-01T14:40:52;10.60;99.90
7784;DHT22;19359;51.402;6.778;2023-04-01T14:43:47;10.60;99.90
7784;DHT22;19359;51.402;6.778;2023-04-01T14:46:27;10.70;99.90
7784;DHT22;19359;51.402;6.778;2023-04-01T14:49:04;10.60;99.90
7784;DHT22;19359;51.402;6.778;2023-04-01T14:51:33;10.50;99.90
7784;DHT22;19359;51.402;6.778;2023-04-01T14:54:05;10.60;99.90
7784;DHT22;19359;51.402;6.778;2023-04-01T14:56:37;10.60;99.90
7784;DHT22;19359;51.402;6.778;2023-04-01T14:59:09;10.60;99.90
7784;DHT22;19359;51.402;6.778;2023-04-01T15:01:43;10.60;99.90
7784;DHT22;19359;51.402;6.778;2023-04-01T15:04:28;10.60;99.90
7784;DHT22;19359;51.402;6.778;2023-04-01T15:09:55;10.50;99.90
7784;DHT22;19359;51.402;6.778;2023-04-01T15:12:30;10.70;99.90
7784;DHT22;19359;51.402;6.778;2023-04-01T15:15:20;10.60;99.90
7784;DHT22;19359;51.402;6.778;2023-04-01T15:18:04;10.60;99.90
7784;DHT22;19359;51.402;6.778;2023-04-01T15:20:59;10.60;99.90
7784;DHT22;19359;51.402;6.778;2023-04-01T15:23:37;10.60;99.90
7784;DHT22;19359;51.402;6.778;2023-04-01T15:28:49;10.40;99.90
7784;DHT22;19359;51.402;6.778;2023-04-01T15:31:22;10.60;99.90
7784;DHT22;19359;51.402;6.778;2023-04-01T15:34:03;10.60;99.90
7784;DHT22;19359;51.402;6.778;2023-04-01T15:36:40;10.60;99.90
7784;DHT22;19359;51.402;6.778;2023-04-01T15:39:13;10.40;99.90
7784;DHT22;19359;51.402;6.778;2023-04-01T15:41:54;10.60;99.90
7784;DHT22;19359;51.402;6.778;2023-04-01T15:44:37;10.40;99.90
7784;DHT22;19359;51.402;6.778;2023-04-01T15:47:35;10.50;99.90
7784;DHT22;19359;51.402;6.778;2023-04-01T15:53:18;10.50;99.90
7784;DHT22;19359;51.402;6.778;2023-04-01T15:55:50;10.50;99.90
7784;DHT22;19359;51.402;6.778;2023-04-01T15:58:36;10.60;99.90
7784;DHT22;19359;51.402;6.778;2023-04-01T16:01:19;10.50;99.90
7784;DHT22;19359;51.402;6.778;2023-04-01T16:03:54;10.60;99.90
7784;DHT22;19359;51.402;6.778;2023-04-01T16:06:39;10.70;99.90
7784;DHT22;19359;51.402;6.778;2023-04-01T16:09:24;10.70;99.90
7784;DHT22;19359;51.402;6.778;2023-04-01T16:11:58;10.80;99.90
7784;DHT22;19359;51.402;6.778;2023-04-01T16:14:36;10.80;99.90
7784;DHT22;19359;51.402;6.778;2023-04-01T16:19:49;10.80;99.90
7784;DHT22;19359;51.402;6.778;2023-04-01T16:22:22;10.60;99.90
7784;DHT22;19359;51.402;6.778;2023-04-01T16:24:59;11.30;99.90
7784;DHT22;19359;51.402;6.778;2023-04-01T16:27:30;10.80;99.90
7784;DHT22;19359;51.402;6.778;2023-04-01T16:30:03;10.90;99.90
7784;DHT22;19359;51.402;6.778;2023-04-01T16:32:49;10.80;99.90
7784;DHT22;19359;51.402;6.778;2023-04-01T16:35:25;10.90;99.90
7784;DHT22;19359;51.402;6.778;2023-04-01T16:38:00;10.80;99.90
7784;DHT22;19359;51.402;6.778;2023-04-01T16:40:42;10.90;99.90
7784;DHT22;19359;51.402;6.778;2023-04-01T16:43:16;10.70;99.90
7784;DHT22;19359;51.402;6.778;2023-04-01T16:45:54;10.70;99.90
7784;DHT22;19359;51.402;6.778;2023-04-01T16:48:28;10.70;99.90
7784;DHT22;19359;51.402;6.778;2023-04-01T16:51:02;10.60;99.90
7784;DHT22;19359;51.402;6.778;2023-04-01T16:53:41;10.20;99.90
7784;DHT22;19359;51.402;6.778;2023-04-01T16:56:14;10.60;99.90
7784;DHT22;19359;51.402;6.778;2023-04-01T16:58:57;10.60;99.90
7784;DHT22;19359;51.402;6.778;2023-04-01T17:01:29;10.60;99.90
7784;DHT22;19359;51.402;6.778;2023-04-01T17:03:59;10.50;99.90
7784;DHT22;19359;51.402;6.778;2023-04-01T17:06:33;10.50;99.90
7784;DHT22;19359;51.402;6.778;2023-04-01T17:09:20;10.50;99.90
7784;DHT22;19359;51.402;6.778;2023-04-01T17:11:57;10.50;99.90
7784;DHT22;19359;51.402;6.778;2023-04-01T17:14:29;10.50;99.90
7784;DHT22;19359;51.402;6.778;2023-04-01T17:17:12;10.40;99.90
7784;DHT22;19359;51.402;6.778;2023-04-01T17:20:02;10.40;99.90
7784;DHT22;19359;51.402;6.778;2023-04-01T17:22:33;10.40;99.90
7784;DHT22;19359;51.402;6.778;2023-04-01T17:25:17;10.40;99.90
7784;DHT22;19359;51.402;6.778;2023-04-01T17:27:51;10.60;99.90
7784;DHT22;19359;51.402;6.778;2023-04-01T17:30:27;10.50;99.90
7784;DHT22;19359;51.402;6.778;2023-04-01T17:33:09;10.40;99.90
7784;DHT22;19359;51.402;6.778;2023-04-01T17:35:40;10.40;99.90
7784;DHT22;19359;51.402;6.778;2023-04-01T17:38:17;10.50;99.90
7784;DHT22;19359;51.402;6.778;2023-04-01T17:40:57;10.40;99.90
7784;DHT22;19359;51.402;6.778;2023-04-01T17:43:36;10.30;99.90
7784;DHT22;19359;51.402;6.778;2023-04-01T17:46:23;10.30;99.90
7784;DHT22;19359;51.402;6.778;2023-04-01T17:48:58;10.30;99.90
7784;DHT22;19359;51.402;6.778;2023-04-01T17:51:32;10.30;99.90
7784;DHT22;19359;51.402;6.778;2023-04-01T17:54:06;10.20;99.90
7784;DHT22;19359;51.402;6.778;2023-04-01T17:56:48;10.30;99.90
7784;DHT22;19359;51.402;6.778;2023-04-01T17:59:28;10.30;99.90
7784;DHT22;19359;51.402;6.778;2023-04-01T18:02:06;10.30;99.90
7784;DHT22;19359;51.402;6.778;2023-04-01T18:05:01;10.30;99.90
7784;DHT22;19359;51.402;6.778;2023-04-01T18:07:45;10.20;99.90
7784;DHT22;19359;51.402;6.778;2023-04-01T18:10:25;10.30;99.90
7784;DHT22;19359;51.402;6.778;2023-04-01T18:13:21;10.20;99.90
7784;DHT22;19359;51.402;6.778;2023-04-01T18:16:02;10.30;99.90
7784;DHT22;19359;51.402;6.778;2023-04-01T18:18:48;10.30;99.90
7784;DHT22;19359;51.402;6.778;2023-04-01T18:21:26;10.20;99.90
7784;DHT22;19359;51.402;6.778;2023-04-01T18:23:56;10.30;99.90
7784;DHT22;19359;51.402;6.778;2023-04-01T18:26:28;10.20;99.90
7784;DHT22;19359;51.402;6.778;2023-04-01T18:28:59;10.20;99.90
7784;DHT22;19359;51.402;6.778;2023-04-01T18:31:36;10.20;99.90
7784;DHT22;19359;51.402;6.778;2023-04-01T18:34:08;10.20;99.90
7784;DHT22;19359;51.402;6.778;2023-04-01T18:36:44;10.20;99.90
7784;DHT22;19359;51.402;6.778;2023-04-01T18:39:14;10.20;99.90
7784;DHT22;19359;51.402;6.778;2023-04-01T18:41:51;10.20;99.90
7784;DHT22;19359;51.402;6.778;2023-04-01T18:44:28;10.20;99.90
7784;DHT22;19359;51.402;6.778;2023-04-01T18:47:03;10.20;99.90
7784;DHT22;19359;51.402;6.778;2023-04-01T18:49:40;10.20;99.90
7784;DHT22;19359;51.402;6.778;2023-04-01T18:52:16;10.20;99.90
7784;DHT22;19359;51.402;6.778;2023-04-01T18:57:15;10.10;99.90
7784;DHT22;19359;51.402;6.778;2023-04-01T18:59:44;10.10;99.90
7784;DHT22;19359;51.402;6.778;2023-04-01T19:02:25;10.10;99.90